Savannah Hilton Head International Airport
KSAV : now visible

Airfield :











YOU CAN JOIN US ON...

 
LOGIN :

Register | Disclaimer

   EN    FR    IT 

 









Legend :    VFR   Marginal VFR   IFR   Intensive IFR   Very Intensive IFR
Visi :
Ceiling :
>= 8 km
>= 3000ft
5 to 8 km
1000 to 3000 ft
1500m to 5 km
500 to 1000 ft
800 to 1500m
200 to 500 ft
< 800m
< 200 ft
Symbols :   Thunderstorms  Fog  Heavy snow  Heavy precipitations  Wind > 20 kt






- Airport Elevation : 50 ft
- IATA code : SAV


KSAV - Savannah Hilton Head International

CURRENT METAR :
  • 212253Z 02004KT 10SM FEW038 SCT065 BKN110 BKN150 OVC210 22/21 A3014 RMK AO2 SLP206 T02220206

EXPIRED METARs :
  • 212153Z 02006KT 10SM FEW006 SCT065 BKN100 BKN130 OVC180 23/21 A3014 RMK AO2 SLP207 T02280206
  • 212053Z 00000KT 10SM SCT006 BKN065 BKN095 OVC130 22/21 A3016 RMK AO2 SLP212 60029 T02220211 55005

TAF KSAV
Valid from the 21 at 19:00 until the 22 at 18:00 UTC


211907Z 2119/2218 05008G14KT P6SM VCSH SCT030 BKN060
TEMPO 2119/2120 2SM -TSRA BKN025CB
FM212300 07006KT P6SM SCT030 BKN200
FM220800 03003KT 5SM BR BKN020
FM221300 06007KT P6SM SCT030 BKN250
KZJX FIR / North America



MET'MAP, your aeronautical weather chart ! - Copyright ORBIFLY December 2007 - Disclaimer

ORBIFLY MET'MAP TEAM :

Programming & Development : Alexandra Zaïnal
Concept & original design : Baudouin d'Aumeries
Assistance for programming : Marc-Olivier Méhu
Technical & hardware support : Manuel Goepfert

Contact : metmap@orbifly.com




SOURCES & CREDITS :

   NOAA       Earth
Advisory